createdAt,value
2017-12-23T00:00:39.633Z,67.82
2017-12-23T00:03:07.473Z,68.10
2017-12-23T00:05:34.989Z,68.30
2017-12-23T00:08:02.494Z,67.87
2017-12-23T00:10:30.699Z,67.67
2017-12-23T00:12:58.213Z,67.74
2017-12-23T00:15:25.746Z,67.65
2017-12-23T00:17:53.479Z,67.87
2017-12-23T00:20:21.039Z,68.07
2017-12-23T00:22:48.551Z,67.64
2017-12-23T00:25:16.117Z,67.83
2017-12-23T00:27:43.637Z,67.71
2017-12-23T00:30:11.145Z,67.38
2017-12-23T00:32:38.977Z,67.18
2017-12-23T00:35:06.500Z,67.60
2017-12-23T00:37:34.073Z,67.31
2017-12-23T00:40:01.827Z,67.26
2017-12-23T00:42:29.385Z,67.50
2017-12-23T00:44:57.868Z,67.66
2017-12-23T00:47:25.713Z,67.57
2017-12-23T00:49:53.216Z,67.98
2017-12-23T00:52:20.754Z,68.00
2017-12-23T00:54:48.496Z,67.96
2017-12-23T00:57:16.001Z,67.74
2017-12-23T00:59:43.511Z,67.61
2017-12-23T01:02:11.200Z,67.72
2017-12-23T01:04:38.804Z,67.64
2017-12-23T01:07:06.314Z,67.60
2017-12-23T01:09:33.908Z,67.41
2017-12-23T01:12:01.442Z,67.60
2017-12-23T01:14:28.944Z,67.27
2017-12-23T01:16:56.524Z,67.06
2017-12-23T01:19:24.026Z,67.21
2017-12-23T01:21:51.580Z,67.43
2017-12-23T01:24:19.113Z,67.33
2017-12-23T01:26:46.612Z,67.34
2017-12-23T01:29:14.164Z,67.22
2017-12-23T01:31:42.127Z,67.44
2017-12-23T01:34:09.676Z,67.50
2017-12-23T01:36:37.180Z,67.79
2017-12-23T01:39:04.910Z,67.51
2017-12-23T01:41:32.470Z,67.58
2017-12-23T01:43:59.978Z,67.94
2017-12-23T01:46:27.519Z,67.75
2017-12-23T01:48:55.046Z,68.64
2017-12-23T01:51:22.545Z,68.58
2017-12-23T01:53:50.073Z,69.51
2017-12-23T01:56:17.624Z,68.56
2017-12-23T01:58:45.122Z,68.14
2017-12-23T02:01:12.816Z,68.55
2017-12-23T02:03:40.316Z,68.11
2017-12-23T02:06:07.813Z,68.09
2017-12-23T02:08:35.625Z,68.74
2017-12-23T02:11:03.186Z,68.07
2017-12-23T02:13:31.154Z,68.34
2017-12-23T02:15:58.892Z,68.19
2017-12-23T02:18:26.397Z,68.05
2017-12-23T02:20:53.934Z,68.20
2017-12-23T02:23:21.470Z,68.20
2017-12-23T02:25:49.003Z,68.26
2017-12-23T02:28:16.500Z,68.49
2017-12-23T02:30:44.276Z,68.78
2017-12-23T02:33:11.778Z,68.41
2017-12-23T02:35:39.600Z,68.55
2017-12-23T02:38:07.539Z,68.30
2017-12-23T02:40:35.537Z,68.86
2017-12-23T02:43:03.094Z,68.43
2017-12-23T02:45:30.730Z,68.19
2017-12-23T02:47:58.240Z,68.38
2017-12-23T02:50:25.809Z,68.19
2017-12-23T02:52:53.541Z,68.60
2017-12-23T02:55:21.098Z,68.28
2017-12-23T02:57:48.757Z,68.59
2017-12-23T03:00:16.324Z,68.94
2017-12-23T03:02:43.829Z,68.05
2017-12-23T03:05:11.341Z,67.80
2017-12-23T03:07:38.911Z,67.84
2017-12-23T03:10:06.450Z,67.58
2017-12-23T03:12:33.958Z,67.51
2017-12-23T03:15:01.644Z,67.68
2017-12-23T03:17:29.228Z,67.87
2017-12-23T03:19:56.733Z,67.58
2017-12-23T03:22:24.448Z,67.39
2017-12-23T03:24:51.957Z,67.83
2017-12-23T03:27:19.471Z,67.65
2017-12-23T03:29:47.227Z,67.45
2017-12-23T03:32:14.736Z,67.69
2017-12-23T03:34:42.245Z,67.86
2017-12-23T03:37:09.789Z,67.58
2017-12-23T03:39:37.298Z,67.86
2017-12-23T03:42:04.805Z,67.86
2017-12-23T03:44:32.684Z,68.26
2017-12-23T03:47:00.193Z,67.82
2017-12-23T03:49:27.700Z,67.83
2017-12-23T03:51:55.300Z,68.04
2017-12-23T03:54:22.808Z,67.98
2017-12-23T03:56:50.322Z,67.99
2017-12-23T03:59:17.870Z,68.47
2017-12-23T04:01:45.387Z,68.64
2017-12-23T04:04:12.905Z,68.75
2017-12-23T04:06:41.324Z,68.70
2017-12-23T04:09:08.831Z,69.00
2017-12-23T04:11:36.334Z,69.06
2017-12-23T04:14:03.896Z,68.50
2017-12-23T04:16:31.409Z,69.21
2017-12-23T04:18:58.922Z,68.41
2017-12-23T04:21:26.705Z,68.31
2017-12-23T04:23:54.237Z,69.42
2017-12-23T04:26:21.824Z,69.06
2017-12-23T04:28:49.760Z,68.93
2017-12-23T04:31:17.269Z,68.95
2017-12-23T04:33:44.772Z,69.11
2017-12-23T04:36:13.694Z,69.83
2017-12-23T04:38:41.228Z,69.45
2017-12-23T04:41:08.781Z,69.09
2017-12-23T04:43:36.321Z,69.14
2017-12-23T04:46:03.888Z,69.00
2017-12-23T04:48:32.357Z,68.77
2017-12-23T04:51:00.141Z,69.24
2017-12-23T04:53:27.701Z,69.24
2017-12-23T04:55:55.209Z,69.46
2017-12-23T04:58:23.044Z,68.86
2017-12-23T05:00:50.561Z,68.83
2017-12-23T05:03:18.070Z,68.71
2017-12-23T05:05:45.781Z,68.55
2017-12-23T05:08:13.360Z,68.68
2017-12-23T05:10:42.008Z,68.80
2017-12-23T05:13:09.547Z,68.64
2017-12-23T05:15:37.061Z,68.89
2017-12-23T05:18:04.576Z,69.08
2017-12-23T05:20:32.176Z,68.54
2017-12-23T05:22:59.676Z,69.03
2017-12-23T05:25:27.278Z,69.38
2017-12-23T05:27:55.030Z,69.77
2017-12-23T05:30:22.552Z,69.37
2017-12-23T05:32:50.073Z,68.70
2017-12-23T05:35:17.737Z,68.66
2017-12-23T05:37:45.256Z,68.90
2017-12-23T05:40:12.761Z,69.04
2017-12-23T05:42:40.332Z,68.88
2017-12-23T05:45:07.866Z,68.84
2017-12-23T05:47:35.374Z,68.68
2017-12-23T05:50:02.917Z,68.34
2017-12-23T05:52:30.425Z,68.73
2017-12-23T05:54:57.933Z,68.64
2017-12-23T05:57:25.490Z,69.57
2017-12-23T05:59:52.997Z,69.44
2017-12-23T06:02:20.497Z,68.92
2017-12-23T06:04:48.337Z,69.19
2017-12-23T06:07:15.899Z,68.68
2017-12-23T06:09:43.404Z,69.10
2017-12-23T06:12:10.964Z,69.07
2017-12-23T06:17:11.182Z,70.61
2017-12-23T06:19:38.729Z,70.18
2017-12-23T06:22:06.267Z,69.84
2017-12-23T06:24:33.804Z,69.41
2017-12-23T06:27:01.326Z,70.59
2017-12-23T06:29:28.846Z,69.43
2017-12-23T06:31:56.609Z,69.68
2017-12-23T06:34:24.166Z,69.42
2017-12-23T06:36:51.730Z,69.58
2017-12-23T06:39:19.385Z,69.15
2017-12-23T06:41:46.970Z,68.91
2017-12-23T06:44:14.505Z,69.11
2017-12-23T06:46:42.268Z,69.54
2017-12-23T06:49:09.834Z,69.14
2017-12-23T06:51:37.345Z,69.67
2017-12-23T06:54:05.173Z,69.86
2017-12-23T06:56:32.811Z,69.44
2017-12-23T06:59:00.321Z,69.74
2017-12-23T07:01:28.009Z,69.05
2017-12-23T07:03:55.521Z,70.00
2017-12-23T07:06:23.037Z,68.45
2017-12-23T07:08:50.612Z,69.26
2017-12-23T07:11:18.118Z,68.89
2017-12-23T07:13:45.626Z,68.06
2017-12-23T07:16:13.764Z,68.52
2017-12-23T07:18:41.273Z,67.95
2017-12-23T07:21:08.821Z,67.28
2017-12-23T07:23:36.524Z,67.67
2017-12-23T07:26:04.029Z,67.62
2017-12-23T07:28:31.544Z,67.78
2017-12-23T07:30:59.093Z,67.85
2017-12-23T07:33:26.606Z,68.36
2017-12-23T07:35:54.169Z,67.72
2017-12-23T07:38:22.035Z,69.06
2017-12-23T07:40:49.556Z,68.46
2017-12-23T07:43:17.078Z,67.84
2017-12-23T07:45:44.646Z,67.78
2017-12-23T07:48:12.170Z,68.15
2017-12-23T07:50:39.732Z,67.68
2017-12-23T07:53:07.376Z,67.32
2017-12-23T07:55:34.897Z,67.84
2017-12-23T07:58:02.409Z,67.74
2017-12-23T08:00:30.273Z,67.66
2017-12-23T08:02:57.782Z,66.78
2017-12-23T08:05:25.310Z,66.28
2017-12-23T08:07:53.148Z,68.06
2017-12-23T08:10:20.653Z,66.57
2017-12-23T08:12:48.166Z,66.18
2017-12-23T08:15:15.936Z,66.24
2017-12-23T08:17:43.496Z,65.79
2017-12-23T08:20:11.006Z,65.97
2017-12-23T08:22:38.545Z,65.51
2017-12-23T08:25:06.062Z,65.16
2017-12-23T08:27:33.569Z,65.46
2017-12-23T08:30:01.292Z,65.12
2017-12-23T08:32:28.893Z,65.09
2017-12-23T08:34:56.410Z,65.28
2017-12-23T08:37:24.175Z,65.08
2017-12-23T08:39:51.688Z,66.14
2017-12-23T08:42:19.204Z,65.52
2017-12-23T08:44:46.749Z,65.02
2017-12-23T08:47:14.256Z,65.96
2017-12-23T08:49:41.788Z,66.49
2017-12-23T08:52:09.333Z,66.77
2017-12-23T08:54:37.714Z,66.13
2017-12-23T08:57:05.224Z,66.23
2017-12-23T08:59:33.149Z,65.43
2017-12-23T09:02:00.696Z,65.82
2017-12-23T09:04:28.293Z,66.63
2017-12-23T09:06:56.125Z,66.13
2017-12-23T09:09:23.673Z,65.82
2017-12-23T09:11:51.193Z,65.58
2017-12-23T09:14:19.098Z,65.22
2017-12-23T09:16:46.610Z,64.86
2017-12-23T09:19:14.154Z,64.21
2017-12-23T09:21:41.840Z,63.85
2017-12-23T09:24:09.345Z,63.82
2017-12-23T09:26:37.223Z,64.12
2017-12-23T09:29:04.967Z,63.62
2017-12-23T09:31:32.503Z,64.41
2017-12-23T09:34:00.013Z,64.20
2017-12-23T09:36:27.726Z,64.30
2017-12-23T09:38:55.250Z,65.18
2017-12-23T09:41:22.769Z,65.16
2017-12-23T09:43:51.291Z,64.57
2017-12-23T09:46:18.855Z,64.71
2017-12-23T09:48:46.384Z,63.93
2017-12-23T09:51:14.227Z,64.11
2017-12-23T09:53:41.786Z,64.48
2017-12-23T09:56:09.345Z,63.73
2017-12-23T09:58:37.108Z,63.57
2017-12-23T10:01:04.668Z,62.62
2017-12-23T10:03:32.178Z,62.03
2017-12-23T10:05:59.992Z,61.60
2017-12-23T10:08:27.938Z,62.21
2017-12-23T10:10:55.929Z,62.80
2017-12-23T10:13:23.673Z,62.02
2017-12-23T10:15:51.221Z,61.43
2017-12-23T10:18:18.739Z,61.74
2017-12-23T10:20:46.471Z,61.53
2017-12-23T10:23:14.034Z,61.90
2017-12-23T10:25:41.543Z,61.79
2017-12-23T10:28:09.456Z,62.48
2017-12-23T10:30:36.970Z,62.29
2017-12-23T10:33:04.677Z,62.67
2017-12-23T10:35:33.290Z,62.80
2017-12-23T10:38:00.803Z,62.98
2017-12-23T10:40:28.315Z,62.88
2017-12-23T10:42:55.889Z,63.94
2017-12-23T10:45:23.397Z,64.85
2017-12-23T10:47:51.875Z,64.84
2017-12-23T10:50:19.465Z,65.03
2017-12-23T10:52:46.973Z,64.41
2017-12-23T10:55:14.522Z,64.27
2017-12-23T10:57:42.081Z,64.89
2017-12-23T11:00:09.605Z,65.33
2017-12-23T11:02:37.231Z,65.12
2017-12-23T11:05:04.882Z,65.19
2017-12-23T11:07:32.433Z,65.29
2017-12-23T11:10:00.011Z,65.28
2017-12-23T11:12:27.754Z,65.03
2017-12-23T11:14:55.277Z,65.30
2017-12-23T11:17:22.824Z,66.40
2017-12-23T11:19:50.553Z,65.70
2017-12-23T11:22:18.166Z,67.25
2017-12-23T11:24:45.686Z,68.02
2017-12-23T11:27:13.333Z,66.72
2017-12-23T11:29:40.994Z,66.19
2017-12-23T11:32:08.710Z,65.71
2017-12-23T11:34:36.496Z,65.64
2017-12-23T11:37:04.593Z,65.95
2017-12-23T11:39:32.254Z,65.48
2017-12-23T11:41:59.916Z,65.57
2017-12-23T11:44:27.577Z,66.07
2017-12-23T11:46:55.168Z,65.28
2017-12-23T11:49:22.900Z,65.54
2017-12-23T11:51:50.460Z,65.41
2017-12-23T11:54:17.971Z,64.55
2017-12-23T11:56:45.789Z,64.93
2017-12-23T11:59:13.374Z,65.02
2017-12-23T12:01:41.003Z,64.58
2017-12-23T12:04:08.577Z,64.73
2017-12-23T12:06:36.194Z,64.38
2017-12-23T12:09:03.709Z,64.25
2017-12-23T12:11:31.553Z,64.81
2017-12-23T12:13:59.149Z,64.81
2017-12-23T12:16:26.687Z,64.39
2017-12-23T12:18:54.421Z,64.46
2017-12-23T12:21:21.994Z,64.49
2017-12-23T12:23:49.652Z,64.72
2017-12-23T12:26:17.414Z,63.94
2017-12-23T12:28:44.973Z,64.13
2017-12-23T12:31:12.565Z,63.45
2017-12-23T12:33:40.555Z,63.68
2017-12-23T12:36:08.244Z,62.94
2017-12-23T12:38:35.988Z,62.88
2017-12-23T12:41:03.689Z,62.52
2017-12-23T12:43:31.351Z,62.53
2017-12-23T12:45:59.011Z,62.53
2017-12-23T12:48:26.749Z,62.47
2017-12-23T12:50:54.263Z,62.39
2017-12-23T12:53:21.793Z,62.69
2017-12-23T12:55:50.170Z,61.38
2017-12-23T12:58:17.731Z,61.38
2017-12-23T13:00:45.287Z,61.01
2017-12-23T13:03:13.460Z,60.89
2017-12-23T13:05:42.043Z,61.20
2017-12-23T13:08:09.884Z,61.89
2017-12-23T13:10:37.684Z,61.41
2017-12-23T13:13:06.160Z,61.26
2017-12-23T13:15:33.886Z,61.05
2017-12-23T13:18:01.684Z,61.23
2017-12-23T13:20:29.456Z,61.43
2017-12-23T13:22:57.292Z,61.38
2017-12-23T13:25:25.387Z,61.46
2017-12-23T13:27:54.598Z,60.91
2017-12-23T13:30:22.451Z,60.73
2017-12-23T13:32:50.681Z,60.85
2017-12-23T13:35:18.386Z,60.90
2017-12-23T13:37:46.046Z,60.62
2017-12-23T13:40:14.322Z,60.31
2017-12-23T13:42:41.881Z,61.37
2017-12-23T13:45:09.532Z,61.72
2017-12-23T13:47:37.817Z,61.33
2017-12-23T13:50:05.788Z,61.05
2017-12-23T13:52:34.269Z,61.49
2017-12-23T13:55:02.134Z,61.96
2017-12-23T13:57:29.773Z,62.12
2017-12-23T13:59:57.558Z,62.73
2017-12-23T14:02:25.527Z,61.62
2017-12-23T14:04:53.292Z,61.28
2017-12-23T14:07:21.055Z,61.73
2017-12-23T14:09:48.824Z,62.08
2017-12-23T14:12:16.582Z,62.14
2017-12-23T14:14:44.449Z,61.92
2017-12-23T14:17:12.035Z,62.33
2017-12-23T14:19:39.829Z,62.10
2017-12-23T14:22:08.255Z,62.60
2017-12-23T14:24:36.260Z,62.18
2017-12-23T14:27:04.088Z,62.67
2017-12-23T14:29:31.601Z,63.24
2017-12-23T14:31:59.512Z,62.28
2017-12-23T14:34:27.295Z,62.41
2017-12-23T14:36:54.993Z,62.95
2017-12-23T14:39:22.871Z,61.97
2017-12-23T14:41:50.377Z,62.70
2017-12-23T14:44:18.128Z,62.68
2017-12-23T14:46:45.861Z,61.90
2017-12-23T14:49:13.552Z,61.76
2017-12-23T14:51:41.112Z,61.66
2017-12-23T14:54:08.670Z,61.98
2017-12-23T14:56:36.401Z,62.06
2017-12-23T14:59:03.922Z,62.13
2017-12-23T15:01:31.711Z,62.51
2017-12-23T15:03:59.225Z,62.18
2017-12-23T15:06:26.773Z,62.77
2017-12-23T15:08:54.740Z,61.66
2017-12-23T15:11:22.331Z,62.44
2017-12-23T15:13:49.859Z,62.67
2017-12-23T15:16:17.889Z,62.19
2017-12-23T15:18:45.357Z,61.91
2017-12-23T15:21:12.876Z,62.78
2017-12-23T15:23:40.607Z,62.71
2017-12-23T15:26:08.161Z,62.64
2017-12-23T15:28:35.666Z,62.63
2017-12-23T15:31:03.556Z,62.63
2017-12-23T15:33:31.064Z,62.09
2017-12-23T15:35:58.608Z,62.19
2017-12-23T15:38:26.176Z,62.71
2017-12-23T15:40:53.681Z,62.08
2017-12-23T15:43:21.186Z,63.00
2017-12-23T15:45:49.021Z,62.96
2017-12-23T15:48:16.713Z,62.17
2017-12-23T15:50:44.226Z,63.34
2017-12-23T15:53:12.006Z,62.86
2017-12-23T15:55:39.511Z,62.12
2017-12-23T15:58:07.049Z,62.44
2017-12-23T16:00:34.605Z,62.57
2017-12-23T16:03:02.118Z,63.08
2017-12-23T16:05:29.634Z,62.48
2017-12-23T16:07:57.578Z,61.99
2017-12-23T16:10:25.082Z,62.36
2017-12-23T16:12:52.593Z,62.17
2017-12-23T16:15:20.313Z,62.21
2017-12-23T16:17:47.835Z,61.53
2017-12-23T16:20:15.389Z,62.30
2017-12-23T16:22:42.939Z,61.81
2017-12-23T16:25:10.446Z,61.82
2017-12-23T16:27:37.963Z,62.22
2017-12-23T16:30:05.974Z,61.73
2017-12-23T16:32:33.594Z,61.99
2017-12-23T16:35:01.193Z,62.33
2017-12-23T16:37:29.107Z,61.92
2017-12-23T16:39:56.614Z,61.79
2017-12-23T16:42:24.137Z,61.61
2017-12-23T16:44:51.946Z,61.92
2017-12-23T16:47:19.665Z,61.52
2017-12-23T16:49:47.325Z,62.06
2017-12-23T16:52:15.114Z,62.10
2017-12-23T16:54:42.672Z,61.78
2017-12-23T16:57:10.187Z,61.42
2017-12-23T16:59:37.768Z,61.33
2017-12-23T17:02:05.327Z,61.00
2017-12-23T17:04:32.888Z,61.02
2017-12-23T17:07:00.542Z,61.28
2017-12-23T17:09:28.046Z,61.20
2017-12-23T17:11:55.555Z,61.54
2017-12-23T17:14:23.223Z,60.90
2017-12-23T17:16:50.792Z,61.29
2017-12-23T17:19:18.342Z,60.72
2017-12-23T17:21:46.096Z,60.58
2017-12-23T17:24:13.605Z,61.03
2017-12-23T17:26:41.172Z,60.75
2017-12-23T17:29:20.662Z,60.75
2017-12-23T17:31:48.165Z,60.90
2017-12-23T17:34:15.780Z,60.68
2017-12-23T17:36:43.542Z,60.96
2017-12-23T17:39:11.059Z,60.52
2017-12-23T17:41:38.560Z,60.61
2017-12-23T17:44:06.129Z,60.91
2017-12-23T17:46:33.633Z,60.41
2017-12-23T17:49:01.237Z,60.59
2017-12-23T17:51:28.806Z,60.93
2017-12-23T17:53:56.450Z,61.21
2017-12-23T17:56:24.023Z,60.96
2017-12-23T17:58:51.662Z,60.95
2017-12-23T18:01:19.236Z,60.73
2017-12-23T18:03:46.830Z,60.77
2017-12-23T18:06:14.541Z,60.62
2017-12-23T18:08:42.221Z,60.66
2017-12-23T18:11:09.845Z,60.55
2017-12-23T18:13:37.648Z,60.65
2017-12-23T18:16:05.411Z,60.48
2017-12-23T18:18:33.278Z,60.54
2017-12-23T18:21:01.758Z,60.82
2017-12-23T18:23:29.537Z,60.53
2017-12-23T18:25:57.389Z,60.52
2017-12-23T18:28:25.254Z,60.64
2017-12-23T18:30:53.031Z,60.59
2017-12-23T18:33:20.644Z,61.05
2017-12-23T18:35:48.751Z,62.07
2017-12-23T18:38:16.618Z,60.55
2017-12-23T18:40:44.480Z,60.72
2017-12-23T18:43:12.196Z,60.63
2017-12-23T18:45:39.908Z,60.63
2017-12-23T18:48:07.481Z,60.83
2017-12-23T18:50:35.118Z,60.79
2017-12-23T18:53:02.791Z,60.78
2017-12-23T18:55:30.349Z,60.80
2017-12-23T18:57:58.095Z,61.01
2017-12-23T19:00:25.775Z,60.95
2017-12-23T19:02:53.436Z,61.31
2017-12-23T19:05:21.406Z,60.91
2017-12-23T19:07:48.937Z,60.96
2017-12-23T19:10:16.453Z,60.82
2017-12-23T19:12:44.177Z,60.68
2017-12-23T19:15:11.688Z,60.75
2017-12-23T19:17:39.509Z,60.71
2017-12-23T19:20:07.271Z,60.71
2017-12-23T19:22:34.832Z,60.87
2017-12-23T19:25:02.404Z,60.95
2017-12-23T19:27:30.627Z,60.70
2017-12-23T19:29:58.429Z,61.03
2017-12-23T19:32:26.091Z,61.09
2017-12-23T19:34:53.900Z,61.41
2017-12-23T19:37:21.469Z,61.09
2017-12-23T19:39:49.075Z,60.87
2017-12-23T19:42:16.918Z,61.50
2017-12-23T19:44:44.608Z,60.94
2017-12-23T19:47:12.333Z,60.99
2017-12-23T19:49:39.966Z,60.80
2017-12-23T19:52:07.499Z,61.21
2017-12-23T19:54:35.043Z,61.01
2017-12-23T19:57:02.852Z,60.80
2017-12-23T19:59:30.397Z,61.08
2017-12-23T20:01:58.029Z,61.26
2017-12-23T20:04:26.006Z,61.08
2017-12-23T20:06:53.557Z,60.88
2017-12-23T20:09:21.114Z,60.66
2017-12-23T20:11:48.879Z,60.92
2017-12-23T20:14:16.474Z,60.94
2017-12-23T20:16:43.996Z,60.54
2017-12-23T20:19:11.756Z,60.45
2017-12-23T20:21:39.281Z,60.59
2017-12-23T20:24:06.789Z,60.61
2017-12-23T20:26:34.361Z,60.85
2017-12-23T20:29:02.099Z,61.08
2017-12-23T20:31:29.726Z,60.97
2017-12-23T20:33:57.599Z,60.76
2017-12-23T20:36:25.121Z,60.56
2017-12-23T20:38:52.655Z,60.84
2017-12-23T20:41:20.541Z,60.98
2017-12-23T20:43:48.068Z,61.04
2017-12-23T20:46:15.574Z,61.36
2017-12-23T20:48:43.421Z,61.10
2017-12-23T20:51:10.979Z,60.91
2017-12-23T20:53:38.510Z,60.69
2017-12-23T20:56:06.275Z,60.94
2017-12-23T20:58:33.831Z,60.63
2017-12-23T21:01:01.344Z,60.90
2017-12-23T21:03:29.172Z,61.30
2017-12-23T21:05:56.693Z,60.87
2017-12-23T21:08:24.198Z,60.72
2017-12-23T21:10:51.740Z,60.70
2017-12-23T21:13:19.237Z,60.57
2017-12-23T21:15:46.798Z,60.49
2017-12-23T21:18:14.400Z,60.37
2017-12-23T21:20:41.905Z,60.44
2017-12-23T21:23:09.423Z,60.65
2017-12-23T21:25:37.084Z,60.96
2017-12-23T21:28:04.850Z,60.93
2017-12-23T21:30:32.414Z,60.62
2017-12-23T21:33:00.101Z,60.46
2017-12-23T21:35:27.627Z,60.68
2017-12-23T21:37:55.252Z,60.28
2017-12-23T21:40:23.156Z,60.42
2017-12-23T21:42:51.637Z,60.32
2017-12-23T21:45:19.197Z,60.65
2017-12-23T21:47:46.897Z,60.56
2017-12-23T21:50:14.401Z,60.61
2017-12-23T21:52:41.975Z,60.32
2017-12-23T21:55:09.534Z,60.36
2017-12-23T21:57:37.048Z,60.77
2017-12-23T22:00:04.557Z,60.46
2017-12-23T22:02:32.212Z,60.64
2017-12-23T22:04:59.873Z,60.11
2017-12-23T22:07:27.384Z,59.97
2017-12-23T22:09:54.957Z,60.44
2017-12-23T22:12:23.684Z,60.15
2017-12-23T22:14:51.235Z,59.99
2017-12-23T22:17:18.814Z,60.06
2017-12-23T22:19:47.251Z,60.12
2017-12-23T22:22:14.773Z,60.57
2017-12-23T22:24:42.497Z,60.41
2017-12-23T22:27:10.006Z,60.19
2017-12-23T22:29:37.519Z,60.19
2017-12-23T22:32:05.153Z,60.45
2017-12-23T22:34:32.714Z,60.42
2017-12-23T22:37:00.236Z,60.21
2017-12-23T22:39:28.157Z,60.23
2017-12-23T22:41:55.677Z,60.12
2017-12-23T22:44:23.189Z,60.09
2017-12-23T22:46:50.745Z,59.95
2017-12-23T22:49:18.253Z,59.75
2017-12-23T22:51:45.758Z,59.69
2017-12-23T22:54:13.320Z,59.85
2017-12-23T22:56:40.822Z,59.67
2017-12-23T22:59:08.329Z,59.88
2017-12-23T23:01:36.265Z,59.69
2017-12-23T23:04:04.253Z,59.81
2017-12-23T23:06:31.758Z,59.70
2017-12-23T23:08:59.317Z,59.64
2017-12-23T23:11:26.823Z,59.46
2017-12-23T23:13:54.336Z,59.81
2017-12-23T23:16:21.878Z,60.06
2017-12-23T23:18:49.546Z,59.77
2017-12-23T23:21:17.072Z,60.69
2017-12-23T23:23:45.041Z,59.74
2017-12-23T23:26:12.546Z,60.05
2017-12-23T23:28:40.056Z,59.68
2017-12-23T23:31:07.762Z,59.86
2017-12-23T23:33:35.270Z,59.70
2017-12-23T23:36:02.783Z,60.54
2017-12-23T23:38:30.464Z,60.98
2017-12-23T23:40:58.040Z,60.70
2017-12-23T23:43:25.615Z,60.26
2017-12-23T23:45:53.174Z,60.23
2017-12-23T23:48:20.683Z,61.18
2017-12-23T23:50:48.186Z,60.65
2017-12-23T23:53:15.733Z,60.49
2017-12-23T23:55:43.237Z,60.33
2017-12-23T23:58:10.746Z,60.06
